createdAt,value
2017-01-16T00:00:39.248Z,99.99
2017-01-16T00:01:50.639Z,99.99
2017-01-16T00:03:02.091Z,99.99
2017-01-16T00:04:13.491Z,99.99
2017-01-16T00:05:24.886Z,99.99
2017-01-16T00:06:36.284Z,99.99
2017-01-16T00:07:47.686Z,99.99
2017-01-16T00:08:59.127Z,99.99
2017-01-16T00:10:10.520Z,99.99
2017-01-16T00:11:21.911Z,99.99
2017-01-16T00:12:33.315Z,99.99
2017-01-16T00:13:44.721Z,99.99
2017-01-16T00:14:56.168Z,99.99
2017-01-16T00:16:07.563Z,99.99
2017-01-16T00:17:18.965Z,99.99
2017-01-16T00:18:30.561Z,99.99
2017-01-16T00:19:41.952Z,99.99
2017-01-16T00:20:53.420Z,99.99
2017-01-16T00:22:05.020Z,99.99
2017-01-16T00:23:16.418Z,99.99
2017-01-16T00:24:28.014Z,99.99
2017-01-16T00:25:39.437Z,99.99
2017-01-16T00:26:50.884Z,99.99
2017-01-16T00:28:02.507Z,99.99
2017-01-16T00:29:13.900Z,99.99
2017-01-16T00:30:25.306Z,99.99
2017-01-16T00:31:36.712Z,99.99
2017-01-16T00:32:48.156Z,99.99
2017-01-16T00:33:59.550Z,99.99
2017-01-16T00:35:10.947Z,99.99
2017-01-16T00:36:22.544Z,99.99
2017-01-16T00:37:33.946Z,99.99
2017-01-16T00:38:45.398Z,99.99
2017-01-16T00:39:56.792Z,99.99
2017-01-16T00:41:08.193Z,99.99
2017-01-16T00:42:19.589Z,99.99
2017-01-16T00:43:30.991Z,99.99
2017-01-16T00:44:42.433Z,99.99
2017-01-16T00:45:53.834Z,99.99
2017-01-16T00:47:05.224Z,99.99
2017-01-16T00:48:16.633Z,99.99
2017-01-16T00:49:28.237Z,99.99
2017-01-16T00:50:39.690Z,99.99
2017-01-16T00:51:51.089Z,99.99
2017-01-16T00:53:02.682Z,99.99
2017-01-16T00:54:14.086Z,99.99
2017-01-16T00:55:25.676Z,99.99
2017-01-16T00:56:37.132Z,99.99
2017-01-16T00:57:48.532Z,99.99
2017-01-16T00:58:59.934Z,99.99
2017-01-16T01:00:11.336Z,99.99
2017-01-16T01:01:22.743Z,99.99
2017-01-16T01:02:34.191Z,99.99
2017-01-16T01:03:45.594Z,99.99
2017-01-16T01:04:56.994Z,99.99
2017-01-16T01:06:08.409Z,99.99
2017-01-16T01:07:19.820Z,99.99
2017-01-16T01:08:31.271Z,99.99
2017-01-16T01:09:42.668Z,99.99
2017-01-16T01:10:54.058Z,99.99
2017-01-16T01:12:05.460Z,99.99
2017-01-16T01:13:16.865Z,99.99
2017-01-16T01:14:28.308Z,99.99
2017-01-16T01:15:39.706Z,99.99
2017-01-16T01:16:51.111Z,99.99
2017-01-16T01:18:02.504Z,99.99
2017-01-16T01:19:13.899Z,99.99
2017-01-16T01:20:25.345Z,99.99
2017-01-16T01:21:36.749Z,99.99
2017-01-16T01:22:48.155Z,99.99
2017-01-16T01:23:59.556Z,99.99
2017-01-16T01:25:10.961Z,99.99
2017-01-16T01:26:22.648Z,99.99
2017-01-16T01:27:34.040Z,99.99
2017-01-16T01:28:45.844Z,99.99
2017-01-16T01:29:57.244Z,99.99
2017-01-16T01:31:08.658Z,99.99
2017-01-16T01:32:20.105Z,99.99
2017-01-16T01:33:31.503Z,99.99
2017-01-16T01:34:42.902Z,99.99
2017-01-16T01:35:54.498Z,99.99
2017-01-16T01:37:06.335Z,99.99
2017-01-16T01:38:17.795Z,99.99
2017-01-16T01:39:29.391Z,99.99
2017-01-16T01:40:40.822Z,99.99
2017-01-16T01:41:52.218Z,99.99
2017-01-16T01:43:03.619Z,99.99
2017-01-16T01:44:15.070Z,99.99
2017-01-16T01:45:26.474Z,99.99
2017-01-16T01:46:37.875Z,99.99
2017-01-16T01:47:49.281Z,99.99
2017-01-16T01:49:00.679Z,99.99
2017-01-16T01:50:12.127Z,99.99
2017-01-16T01:51:23.531Z,99.99
2017-01-16T01:52:35.136Z,99.99
2017-01-16T01:53:46.534Z,99.99
2017-01-16T01:54:57.970Z,99.99
2017-01-16T01:56:09.417Z,99.99
2017-01-16T01:57:20.814Z,99.99
2017-01-16T01:58:32.211Z,99.99
2017-01-16T01:59:43.610Z,99.99
2017-01-16T02:00:55.017Z,99.99
2017-01-16T02:02:06.457Z,99.99
2017-01-16T02:03:17.860Z,99.99
2017-01-16T02:04:29.458Z,99.99
2017-01-16T02:05:40.856Z,99.99
2017-01-16T02:06:52.454Z,99.99
2017-01-16T02:08:04.107Z,99.99
2017-01-16T02:09:15.503Z,99.99
2017-01-16T02:10:27.109Z,99.99
2017-01-16T02:11:38.500Z,99.99
2017-01-16T02:12:49.894Z,99.99
2017-01-16T02:14:01.352Z,99.99
2017-01-16T02:15:12.750Z,99.99
2017-01-16T02:16:24.354Z,99.99
2017-01-16T02:17:35.782Z,99.99
2017-01-16T02:18:47.184Z,99.99
2017-01-16T02:19:58.639Z,99.99
2017-01-16T02:21:10.073Z,99.99
2017-01-16T02:22:21.492Z,99.99
2017-01-16T02:23:32.893Z,99.99
2017-01-16T02:24:44.493Z,99.99
2017-01-16T02:25:55.948Z,99.99
2017-01-16T02:27:07.353Z,99.99
2017-01-16T02:28:18.759Z,99.99
2017-01-16T02:29:30.158Z,99.99
2017-01-16T02:30:41.556Z,99.99
2017-01-16T02:31:52.998Z,99.99
2017-01-16T02:33:04.395Z,99.99
2017-01-16T02:34:15.793Z,99.99
2017-01-16T02:35:27.403Z,99.99
2017-01-16T02:36:39.009Z,99.99
2017-01-16T02:37:50.457Z,99.99
2017-01-16T02:39:01.855Z,99.99
2017-01-16T02:40:13.264Z,99.99
2017-01-16T02:41:24.669Z,99.99
2017-01-16T02:42:36.076Z,99.99
2017-01-16T02:43:47.530Z,99.99
2017-01-16T02:44:58.939Z,99.99
2017-01-16T02:46:10.335Z,99.99
2017-01-16T02:47:21.741Z,99.99
2017-01-16T02:48:33.140Z,99.99
2017-01-16T02:49:44.590Z,99.99
2017-01-16T02:50:55.983Z,99.99
2017-01-16T02:52:07.760Z,99.99
2017-01-16T02:53:19.977Z,99.99
2017-01-16T02:54:31.374Z,99.99
2017-01-16T02:55:42.819Z,99.99
2017-01-16T02:56:54.221Z,99.99
2017-01-16T02:58:05.617Z,99.99
2017-01-16T02:59:17.020Z,99.99
2017-01-16T03:00:28.410Z,99.99
2017-01-16T03:01:40.062Z,99.99
2017-01-16T03:02:51.662Z,99.99
2017-01-16T03:04:03.094Z,99.99
2017-01-16T03:05:14.493Z,99.99
2017-01-16T03:06:25.887Z,99.99
2017-01-16T03:07:37.540Z,99.99
2017-01-16T03:08:48.937Z,99.99
2017-01-16T03:10:00.332Z,99.99
2017-01-16T03:11:11.732Z,99.99
2017-01-16T03:12:23.329Z,99.99
2017-01-16T03:13:34.788Z,99.99
2017-01-16T03:14:46.191Z,99.99
2017-01-16T03:15:57.587Z,99.99
2017-01-16T03:17:08.996Z,99.99
2017-01-16T03:18:20.609Z,99.99
2017-01-16T03:19:32.059Z,99.99
2017-01-16T03:20:43.463Z,99.99
2017-01-16T03:21:54.859Z,99.99
2017-01-16T03:23:06.457Z,99.99
2017-01-16T03:24:17.857Z,99.99
2017-01-16T03:25:29.504Z,99.99
2017-01-16T03:26:41.100Z,99.99
2017-01-16T03:27:52.700Z,99.99
2017-01-16T03:29:04.107Z,99.99
2017-01-16T03:30:15.711Z,99.99
2017-01-16T03:31:27.183Z,99.99
2017-01-16T03:32:38.800Z,99.99
2017-01-16T03:33:50.407Z,99.99
2017-01-16T03:35:01.801Z,99.99
2017-01-16T03:36:13.198Z,99.99
2017-01-16T03:37:24.649Z,99.99
2017-01-16T03:38:36.041Z,99.99
2017-01-16T03:39:47.446Z,99.99
2017-01-16T03:40:58.855Z,99.99
2017-01-16T03:42:10.261Z,99.99
2017-01-16T03:43:21.713Z,99.99
2017-01-16T03:44:33.115Z,99.99
2017-01-16T03:45:44.719Z,99.99
2017-01-16T03:46:56.115Z,99.99
2017-01-16T03:48:07.513Z,99.99
2017-01-16T03:49:18.972Z,99.99
2017-01-16T03:50:30.574Z,99.99
2017-01-16T03:51:41.998Z,99.99
2017-01-16T03:52:53.392Z,99.99
2017-01-16T03:54:04.791Z,99.99
2017-01-16T03:55:16.236Z,99.99
2017-01-16T03:56:27.642Z,99.99
2017-01-16T03:57:39.044Z,99.99
2017-01-16T03:58:50.448Z,99.99
2017-01-16T04:00:01.879Z,99.99
2017-01-16T04:01:13.340Z,99.99
2017-01-16T04:02:24.938Z,99.99
2017-01-16T04:03:36.333Z,99.99
2017-01-16T04:04:47.943Z,99.99
2017-01-16T04:05:59.542Z,99.99
2017-01-16T04:07:10.994Z,99.99
2017-01-16T04:08:22.396Z,99.99
2017-01-16T04:09:33.797Z,99.99
2017-01-16T04:10:45.198Z,99.99
2017-01-16T04:11:56.604Z,99.99
2017-01-16T04:13:08.061Z,99.99
2017-01-16T04:14:19.463Z,99.99
2017-01-16T04:15:30.866Z,99.99
2017-01-16T04:16:42.275Z,99.99
2017-01-16T04:17:53.678Z,99.99
2017-01-16T04:19:05.132Z,99.99
2017-01-16T04:20:16.532Z,99.99
2017-01-16T04:21:27.939Z,99.99
2017-01-16T04:22:39.337Z,99.99
2017-01-16T04:23:50.932Z,99.99
2017-01-16T04:25:02.385Z,99.99
2017-01-16T04:26:13.779Z,99.99
2017-01-16T04:27:25.188Z,99.99
2017-01-16T04:28:36.590Z,99.99
2017-01-16T04:29:48.185Z,99.99
2017-01-16T04:30:59.627Z,99.99
2017-01-16T04:32:11.035Z,99.99
2017-01-16T04:33:22.439Z,99.99
2017-01-16T04:34:33.838Z,99.99
2017-01-16T04:35:45.241Z,99.99
2017-01-16T04:36:56.689Z,99.99
2017-01-16T04:38:08.094Z,99.99
2017-01-16T04:39:19.699Z,99.99
2017-01-16T04:40:31.101Z,99.99
2017-01-16T04:41:42.502Z,99.99
2017-01-16T04:42:53.977Z,99.99
2017-01-16T04:44:05.379Z,99.99
2017-01-16T04:45:16.801Z,99.99
2017-01-16T04:46:28.193Z,99.99
2017-01-16T04:47:39.593Z,99.99
2017-01-16T04:48:51.243Z,99.99
2017-01-16T04:50:02.677Z,99.99
2017-01-16T04:51:14.280Z,99.99
2017-01-16T04:52:25.680Z,99.99
2017-01-16T04:53:37.282Z,99.99
2017-01-16T04:54:48.933Z,99.99
2017-01-16T04:56:00.333Z,99.99
2017-01-16T04:57:11.736Z,99.99
2017-01-16T04:58:23.139Z,99.99
2017-01-16T04:59:34.738Z,99.99
2017-01-16T05:00:46.187Z,99.99
2017-01-16T05:01:57.783Z,99.99
2017-01-16T05:03:09.195Z,99.99
2017-01-16T05:04:20.601Z,99.99
2017-01-16T05:05:32.035Z,99.99
2017-01-16T05:06:43.484Z,99.99
2017-01-16T05:07:54.887Z,99.99
2017-01-16T05:09:06.286Z,99.99
2017-01-16T05:10:17.885Z,99.99
2017-01-16T05:11:29.489Z,99.99
2017-01-16T05:12:40.938Z,99.99
2017-01-16T05:13:52.352Z,99.99
2017-01-16T05:15:03.944Z,99.99
2017-01-16T05:16:15.348Z,99.99
2017-01-16T05:17:26.754Z,99.99
2017-01-16T05:18:38.226Z,99.99
2017-01-16T05:19:49.822Z,99.99
2017-01-16T05:21:01.226Z,99.99
2017-01-16T05:22:12.657Z,99.99
2017-01-16T05:23:24.067Z,99.99
2017-01-16T05:24:35.513Z,99.99
2017-01-16T05:25:46.913Z,99.99
2017-01-16T05:26:58.309Z,99.99
2017-01-16T05:28:09.707Z,99.99
2017-01-16T05:29:21.111Z,99.99
2017-01-16T05:30:32.556Z,99.99
2017-01-16T05:31:43.952Z,99.99
2017-01-16T05:32:55.354Z,99.99
2017-01-16T05:34:06.764Z,99.99
2017-01-16T05:35:18.169Z,99.99
2017-01-16T05:36:29.620Z,99.99
2017-01-16T05:37:41.019Z,99.99
2017-01-16T05:38:52.417Z,99.99
2017-01-16T05:40:03.824Z,99.99
2017-01-16T05:41:15.222Z,99.99
2017-01-16T05:42:26.674Z,99.99
2017-01-16T05:43:38.077Z,99.99
2017-01-16T05:44:49.483Z,99.99
2017-01-16T05:46:00.885Z,99.99
2017-01-16T05:47:12.291Z,99.99
2017-01-16T05:48:23.771Z,99.99
2017-01-16T05:49:35.174Z,99.99
2017-01-16T05:50:46.576Z,99.99
2017-01-16T05:51:57.965Z,99.99
2017-01-16T05:53:09.576Z,99.99
2017-01-16T05:54:21.025Z,99.99
2017-01-16T05:55:32.430Z,99.99
2017-01-16T05:56:43.829Z,99.99
2017-01-16T05:57:55.260Z,99.99
2017-01-16T05:59:06.668Z,99.99
2017-01-16T06:00:18.113Z,99.99
2017-01-16T06:01:29.519Z,99.99
2017-01-16T06:02:40.912Z,99.99
2017-01-16T06:03:52.312Z,99.99
2017-01-16T06:05:03.917Z,99.99
2017-01-16T06:06:15.365Z,99.99
2017-01-16T06:07:26.990Z,99.99
2017-01-16T06:08:38.387Z,99.99
2017-01-16T06:09:49.790Z,99.99
2017-01-16T06:11:01.185Z,99.99
2017-01-16T06:12:12.641Z,99.99
2017-01-16T06:13:24.048Z,99.99
2017-01-16T06:14:35.458Z,99.99
2017-01-16T06:15:46.869Z,99.99
2017-01-16T06:16:58.264Z,99.99
2017-01-16T06:18:09.734Z,99.99
2017-01-16T06:19:21.336Z,99.99
2017-01-16T06:20:32.739Z,99.99
2017-01-16T06:21:44.134Z,99.99
2017-01-16T06:22:55.536Z,99.99
2017-01-16T06:24:07.182Z,99.99
2017-01-16T06:25:18.580Z,99.99
2017-01-16T06:26:30.015Z,99.99
2017-01-16T06:27:41.619Z,99.99
2017-01-16T06:28:53.029Z,99.99
2017-01-16T06:30:04.487Z,99.99
2017-01-16T06:31:15.891Z,99.99
2017-01-16T06:32:27.293Z,99.99
2017-01-16T06:33:38.699Z,99.99
2017-01-16T06:34:50.096Z,99.99
2017-01-16T06:36:01.546Z,99.99
2017-01-16T06:37:12.945Z,99.99
2017-01-16T06:38:24.351Z,99.99
2017-01-16T06:39:35.754Z,99.99
2017-01-16T06:40:47.152Z,99.99
2017-01-16T06:41:58.636Z,99.99
2017-01-16T06:43:10.235Z,99.99
2017-01-16T06:44:21.633Z,99.99
2017-01-16T06:45:33.038Z,99.99
2017-01-16T06:46:44.434Z,99.99
2017-01-16T06:47:55.908Z,99.99
2017-01-16T06:49:07.317Z,99.99
2017-01-16T06:50:18.720Z,99.99
2017-01-16T06:51:30.121Z,99.99
2017-01-16T06:52:41.525Z,99.99
2017-01-16T06:53:53.177Z,99.99
2017-01-16T06:55:04.591Z,99.99
2017-01-16T06:56:15.992Z,99.99
2017-01-16T06:57:27.591Z,99.99
2017-01-16T06:58:39.192Z,99.99
2017-01-16T06:59:50.646Z,99.99
2017-01-16T07:01:02.045Z,99.99
2017-01-16T07:02:13.444Z,99.99
2017-01-16T07:03:24.842Z,99.99
2017-01-16T07:04:36.242Z,99.99
2017-01-16T07:05:47.693Z,99.99
2017-01-16T07:06:59.096Z,99.99
2017-01-16T07:08:10.494Z,99.99
2017-01-16T07:09:21.894Z,99.99
2017-01-16T07:10:33.301Z,99.99
2017-01-16T07:11:44.949Z,99.99
2017-01-16T07:12:56.550Z,99.99
2017-01-16T07:14:07.955Z,99.99
2017-01-16T07:15:19.378Z,99.99
2017-01-16T07:16:30.780Z,99.99
2017-01-16T07:17:42.234Z,99.99
2017-01-16T07:18:53.633Z,99.99
2017-01-16T07:20:05.241Z,99.99
2017-01-16T07:21:16.637Z,99.99
2017-01-16T07:22:28.444Z,99.99
2017-01-16T07:23:39.899Z,99.99
2017-01-16T07:24:51.304Z,99.99
2017-01-16T07:26:02.703Z,99.99
2017-01-16T07:27:14.099Z,99.99
2017-01-16T07:28:25.910Z,99.99
2017-01-16T07:29:37.355Z,99.99
2017-01-16T07:30:48.761Z,99.99
2017-01-16T07:32:00.156Z,99.99
2017-01-16T07:33:11.553Z,99.99
2017-01-16T07:34:22.958Z,99.99
2017-01-16T07:35:34.406Z,99.99
2017-01-16T07:36:45.809Z,99.99
2017-01-16T07:37:57.207Z,99.99
2017-01-16T07:39:08.608Z,99.99
2017-01-16T07:40:20.010Z,99.99
2017-01-16T07:41:31.670Z,99.99
2017-01-16T07:42:43.076Z,99.99
2017-01-16T07:43:54.482Z,99.99
2017-01-16T07:45:05.888Z,99.99
2017-01-16T07:46:17.293Z,99.99
2017-01-16T07:47:28.747Z,99.99
2017-01-16T07:48:40.346Z,99.99
2017-01-16T07:49:51.752Z,99.99
2017-01-16T07:51:03.147Z,99.99
2017-01-16T07:52:14.582Z,99.99
2017-01-16T07:53:26.179Z,99.99
2017-01-16T07:54:37.576Z,99.99
2017-01-16T07:55:48.997Z,99.99
2017-01-16T07:57:00.401Z,99.99
2017-01-16T07:58:11.799Z,99.99
2017-01-16T07:59:23.256Z,99.99
2017-01-16T08:00:34.647Z,99.99
2017-01-16T08:01:46.055Z,99.99
2017-01-16T08:02:57.657Z,99.99
2017-01-16T08:04:09.056Z,99.99
2017-01-16T08:05:20.502Z,99.99
2017-01-16T08:06:31.899Z,99.99
2017-01-16T08:07:43.298Z,99.99
2017-01-16T08:08:54.900Z,99.99
2017-01-16T08:10:06.299Z,99.99
2017-01-16T08:11:17.954Z,99.99
2017-01-16T08:12:29.356Z,99.99
2017-01-16T08:13:40.766Z,99.99
2017-01-16T08:14:52.160Z,99.99
2017-01-16T08:16:03.569Z,99.99
2017-01-16T08:17:15.020Z,99.99
2017-01-16T08:18:26.423Z,99.99
2017-01-16T08:19:37.828Z,99.99
2017-01-16T08:20:49.228Z,99.99
2017-01-16T08:22:00.638Z,99.99
2017-01-16T08:23:12.102Z,99.99
2017-01-16T08:24:23.498Z,99.99
2017-01-16T08:25:34.901Z,99.99
2017-01-16T08:26:46.301Z,99.99
2017-01-16T08:27:57.906Z,99.99
2017-01-16T08:29:09.414Z,99.99
2017-01-16T08:30:20.816Z,99.99
2017-01-16T08:31:32.233Z,99.99
2017-01-16T08:32:43.639Z,99.99
2017-01-16T08:33:55.038Z,99.99
2017-01-16T08:35:06.488Z,99.99
2017-01-16T08:36:17.881Z,99.99
2017-01-16T08:37:29.280Z,99.99
2017-01-16T08:38:40.876Z,99.99
2017-01-16T08:39:52.276Z,99.99
2017-01-16T08:41:03.728Z,99.99
2017-01-16T08:42:15.167Z,99.99
2017-01-16T08:43:26.562Z,99.99
2017-01-16T08:44:37.969Z,99.99
2017-01-16T08:45:49.592Z,99.99
2017-01-16T08:47:01.044Z,99.99
2017-01-16T08:48:12.435Z,99.99
2017-01-16T08:49:23.834Z,99.99
2017-01-16T08:50:35.243Z,99.99
2017-01-16T08:51:46.641Z,99.99
2017-01-16T08:52:58.099Z,99.99
2017-01-16T08:54:09.505Z,99.99
2017-01-16T08:55:21.104Z,99.99
2017-01-16T08:56:32.506Z,99.99
2017-01-16T08:57:43.937Z,99.99
2017-01-16T08:58:55.384Z,99.99
2017-01-16T09:00:06.778Z,99.99
2017-01-16T09:01:18.381Z,99.99
2017-01-16T09:02:29.804Z,99.99
2017-01-16T09:03:41.204Z,99.99
2017-01-16T09:04:52.865Z,99.99
2017-01-16T09:06:04.264Z,99.99
2017-01-16T09:07:15.666Z,99.99
2017-01-16T09:08:27.468Z,99.99
2017-01-16T09:09:38.873Z,99.99
2017-01-16T09:10:50.356Z,99.99
2017-01-16T09:12:01.958Z,99.99
2017-01-16T09:13:13.362Z,99.99
2017-01-16T09:14:24.759Z,99.99
2017-01-16T09:15:36.158Z,99.99
2017-01-16T09:16:47.629Z,99.99
2017-01-16T09:17:59.032Z,99.99
2017-01-16T09:19:10.437Z,99.99
2017-01-16T09:20:21.838Z,99.99
2017-01-16T09:21:33.243Z,99.99
2017-01-16T09:22:44.701Z,99.99
2017-01-16T09:23:56.119Z,99.99
2017-01-16T09:25:07.525Z,99.99
2017-01-16T09:26:18.957Z,99.99
2017-01-16T09:27:30.351Z,99.99
2017-01-16T09:28:41.805Z,99.99
2017-01-16T09:29:53.200Z,99.99
2017-01-16T09:31:04.613Z,99.99
2017-01-16T09:32:16.018Z,99.99
2017-01-16T09:33:27.422Z,99.99
2017-01-16T09:34:38.876Z,99.99
2017-01-16T09:35:50.274Z,99.99
2017-01-16T09:37:01.685Z,99.99
2017-01-16T09:38:13.125Z,99.99
2017-01-16T09:39:24.740Z,99.99
2017-01-16T09:40:36.197Z,99.99
2017-01-16T09:41:47.596Z,99.99
2017-01-16T09:42:59.028Z,99.99
2017-01-16T09:44:10.435Z,99.99
2017-01-16T09:45:21.848Z,99.99
2017-01-16T09:46:33.307Z,99.99
2017-01-16T09:47:44.726Z,99.99
2017-01-16T09:48:56.162Z,99.99
2017-01-16T09:50:07.570Z,99.99
2017-01-16T09:51:18.975Z,99.99
2017-01-16T09:52:30.429Z,99.99
2017-01-16T09:53:41.836Z,99.99
2017-01-16T09:54:53.256Z,99.99
2017-01-16T09:56:04.663Z,99.99
2017-01-16T09:57:16.098Z,99.99
2017-01-16T09:58:27.562Z,99.99
2017-01-16T09:59:39.168Z,99.99
2017-01-16T10:00:50.785Z,99.99
2017-01-16T10:02:02.186Z,99.99
2017-01-16T10:03:13.591Z,99.44
2017-01-16T10:04:25.049Z,98.31
2017-01-16T10:05:36.458Z,97.41
2017-01-16T10:06:47.870Z,94.98
2017-01-16T10:07:59.292Z,91.71
2017-01-16T10:09:10.908Z,90.66
2017-01-16T10:10:22.368Z,90.37
2017-01-16T10:11:33.788Z,92.51
2017-01-16T10:12:45.393Z,95.79
2017-01-16T10:13:57.005Z,97.6
2017-01-16T10:15:08.445Z,99.87
2017-01-16T10:16:19.909Z,99.99
2017-01-16T10:17:31.316Z,99.99
2017-01-16T10:18:42.723Z,99.99
2017-01-16T10:19:54.340Z,99.99
2017-01-16T10:21:05.756Z,99.99
2017-01-16T10:22:17.411Z,99.99
2017-01-16T10:23:28.816Z,99.99
2017-01-16T10:24:40.425Z,98.31
2017-01-16T10:25:51.833Z,97.92
2017-01-16T10:27:03.253Z,97.74
2017-01-16T10:28:14.714Z,96.93
2017-01-16T10:29:26.130Z,95.22
2017-01-16T10:30:37.537Z,92.41
2017-01-16T10:31:48.950Z,88.46
2017-01-16T10:33:00.355Z,87.71
2017-01-16T10:34:11.818Z,85.24
2017-01-16T10:35:23.626Z,84.95
2017-01-16T10:36:35.242Z,86.28
2017-01-16T10:37:46.651Z,86.32
2017-01-16T10:38:58.066Z,85.7
2017-01-16T10:40:09.527Z,82.56
2017-01-16T10:41:20.942Z,82.69
2017-01-16T10:42:32.372Z,81.07
2017-01-16T10:43:43.789Z,79.49
2017-01-16T10:44:55.208Z,79.68
2017-01-16T10:46:06.680Z,78.1
2017-01-16T10:47:18.093Z,74.9
2017-01-16T10:48:29.711Z,73.37
2017-01-16T10:49:41.137Z,74.61
2017-01-16T10:50:52.755Z,75.66
2017-01-16T10:52:04.251Z,73.47
2017-01-16T10:53:15.672Z,71.69
2017-01-16T10:54:27.097Z,73.22
2017-01-16T10:55:38.516Z,70.16
2017-01-16T10:56:49.991Z,71.98
2017-01-16T10:58:01.405Z,72.64
2017-01-16T10:59:12.822Z,70.67
2017-01-16T11:00:24.241Z,70.67
2017-01-16T11:01:35.684Z,70.2
2017-01-16T11:02:47.147Z,69.47
2017-01-16T11:03:58.567Z,69.47
2017-01-16T11:05:09.985Z,68.57
2017-01-16T11:06:21.400Z,69.62
2017-01-16T11:07:32.818Z,70.54
2017-01-16T11:08:44.286Z,70.77
2017-01-16T11:09:55.704Z,69.91
2017-01-16T11:11:07.134Z,69.53
2017-01-16T11:12:18.754Z,68.67
2017-01-16T11:13:30.177Z,69.15
2017-01-16T11:14:42.049Z,68.48
2017-01-16T11:15:53.465Z,67.87
2017-01-16T11:17:04.883Z,69.59
2017-01-16T11:18:16.299Z,69.93
2017-01-16T11:19:27.708Z,70.16
2017-01-16T11:20:39.186Z,68.92
2017-01-16T11:21:50.616Z,69.49
2017-01-16T11:23:02.032Z,69.97
2017-01-16T11:24:13.653Z,69.46
2017-01-16T11:25:25.093Z,70.28
2017-01-16T11:26:36.551Z,70.72
2017-01-16T11:27:48.170Z,72.21
2017-01-16T11:28:59.581Z,74.75
2017-01-16T11:30:10.997Z,76.9
2017-01-16T11:31:22.407Z,77.19
2017-01-16T11:32:33.867Z,78.19
2017-01-16T11:33:45.279Z,80.29
2017-01-16T11:34:56.701Z,82.19
2017-01-16T11:36:08.155Z,82.43
2017-01-16T11:37:19.776Z,81.01
2017-01-16T11:38:31.439Z,82.15
2017-01-16T11:39:42.853Z,84.1
2017-01-16T11:40:54.258Z,82.77
2017-01-16T11:42:05.670Z,84.29
2017-01-16T11:43:17.076Z,85.91
2017-01-16T11:44:28.535Z,86.34
2017-01-16T11:45:39.941Z,87.67
2017-01-16T11:46:51.349Z,86.91
2017-01-16T11:48:02.754Z,84.91
2017-01-16T11:49:14.177Z,85.49
2017-01-16T11:50:25.866Z,88.1
2017-01-16T11:51:37.296Z,86.96
2017-01-16T11:52:48.698Z,86.39
2017-01-16T11:54:00.305Z,89.33
2017-01-16T11:55:11.716Z,89.72
2017-01-16T11:56:23.173Z,93.08
2017-01-16T11:57:34.582Z,94.23
2017-01-16T11:58:45.986Z,95.46
2017-01-16T11:59:57.382Z,98.3
2017-01-16T12:01:08.786Z,96.31
2017-01-16T12:02:20.238Z,98.68
2017-01-16T12:03:31.643Z,99.99
2017-01-16T12:04:43.038Z,99.99
2017-01-16T12:05:54.449Z,94.46
2017-01-16T12:07:05.854Z,87.43
2017-01-16T12:08:17.305Z,85.3
2017-01-16T12:09:28.752Z,82.16
2017-01-16T12:10:40.158Z,85.58
2017-01-16T12:11:51.566Z,84.67
2017-01-16T12:13:02.979Z,82.87
2017-01-16T12:14:14.436Z,84.86
2017-01-16T12:15:26.039Z,83.86
2017-01-16T12:16:37.455Z,79.24
2017-01-16T12:17:48.866Z,78.96
2017-01-16T12:19:00.271Z,82.43
2017-01-16T12:20:11.935Z,84.01
2017-01-16T12:21:23.541Z,84.48
2017-01-16T12:22:34.948Z,85.3
2017-01-16T12:23:46.357Z,83.11
2017-01-16T12:24:57.788Z,83.72
2017-01-16T12:26:09.248Z,86.29
2017-01-16T12:27:20.652Z,87.52
2017-01-16T12:28:32.067Z,85.91
2017-01-16T12:29:43.479Z,83.48
2017-01-16T12:30:54.896Z,80.53
2017-01-16T12:32:06.354Z,79.39
2017-01-16T12:33:17.767Z,77.45
2017-01-16T12:34:29.181Z,77.45
2017-01-16T12:35:40.786Z,78.97
2017-01-16T12:36:52.196Z,82.82
2017-01-16T12:38:03.665Z,86.15
2017-01-16T12:39:15.276Z,85.3
2017-01-16T12:40:26.683Z,83.68
2017-01-16T12:41:38.089Z,86.15
2017-01-16T12:42:49.498Z,85.3
2017-01-16T12:44:00.952Z,84.34
2017-01-16T12:45:12.361Z,81.44
2017-01-16T12:46:23.766Z,80.02
2017-01-16T12:47:35.371Z,80.49
2017-01-16T12:48:46.776Z,78.21
2017-01-16T12:49:58.434Z,77.68
2017-01-16T12:51:09.838Z,77.2
2017-01-16T12:52:21.248Z,78.44
2017-01-16T12:53:32.656Z,77.87
2017-01-16T12:54:44.059Z,79.39
2017-01-16T12:55:55.507Z,78
2017-01-16T12:57:06.917Z,75.05
2017-01-16T12:58:18.525Z,75.3
2017-01-16T12:59:29.937Z,76.35
2017-01-16T13:00:41.371Z,76.92
2017-01-16T13:01:52.832Z,77.73
2017-01-16T13:03:04.238Z,78.88
2017-01-16T13:04:15.651Z,79.68
2017-01-16T13:05:27.093Z,79.96
2017-01-16T13:06:38.502Z,78.34
2017-01-16T13:07:49.949Z,77.2
2017-01-16T13:09:01.368Z,80.44
2017-01-16T13:10:12.773Z,78.19
2017-01-16T13:11:24.380Z,78.96
2017-01-16T13:12:35.988Z,78.19
2017-01-16T13:13:47.448Z,75.72
2017-01-16T13:14:58.850Z,75.91
2017-01-16T13:16:10.259Z,75.96
2017-01-16T13:17:21.663Z,78.11
2017-01-16T13:18:33.068Z,78.4
2017-01-16T13:19:44.525Z,79.73
2017-01-16T13:20:55.932Z,80.16
2017-01-16T13:22:07.346Z,79.88
2017-01-16T13:23:18.753Z,82.45
2017-01-16T13:24:30.166Z,83.45
2017-01-16T13:25:41.630Z,86.07
2017-01-16T13:26:53.040Z,85.78
2017-01-16T13:28:04.448Z,87.58
2017-01-16T13:29:15.852Z,88.1
2017-01-16T13:30:27.254Z,90.29
2017-01-16T13:31:38.706Z,91.14
2017-01-16T13:32:50.124Z,92.28
2017-01-16T13:34:01.541Z,93.84
2017-01-16T13:35:12.950Z,95.55
2017-01-16T13:36:24.358Z,98.96
2017-01-16T13:37:35.804Z,99.99
2017-01-16T13:38:47.197Z,99.99
2017-01-16T13:39:58.593Z,99.99
2017-01-16T13:41:09.996Z,97.02
2017-01-16T13:42:21.401Z,97.12
2017-01-16T13:43:32.853Z,95.6
2017-01-16T13:44:44.657Z,94.46
2017-01-16T13:45:56.059Z,98.11
2017-01-16T13:47:07.464Z,96.97
2017-01-16T13:48:18.875Z,96.69
2017-01-16T13:49:30.528Z,96.59
2017-01-16T13:50:41.934Z,95.74
2017-01-16T13:51:53.533Z,95.45
2017-01-16T13:53:04.936Z,96.41
2017-01-16T13:54:16.347Z,99.82
2017-01-16T13:55:27.794Z,99.99
2017-01-16T13:56:39.396Z,99.99
2017-01-16T13:57:50.796Z,99.99
2017-01-16T13:59:02.196Z,99.99
2017-01-16T14:00:13.600Z,99.99
2017-01-16T14:01:25.059Z,99.99
2017-01-16T14:02:36.468Z,99.99
2017-01-16T14:03:47.871Z,99.99
2017-01-16T14:04:59.276Z,99.99
2017-01-16T14:06:10.676Z,99.99
2017-01-16T14:07:22.150Z,99.99
2017-01-16T14:08:33.556Z,99.99
2017-01-16T14:09:44.968Z,99.99
2017-01-16T14:10:56.372Z,99.99
2017-01-16T14:12:07.772Z,99.99
2017-01-16T14:13:19.224Z,99.99
2017-01-16T14:14:30.634Z,99.99
2017-01-16T14:15:42.048Z,99.99
2017-01-16T14:16:53.448Z,99.99
2017-01-16T14:18:04.856Z,99.99
2017-01-16T14:19:16.318Z,99.99
2017-01-16T14:20:27.716Z,99.99
2017-01-16T14:21:39.323Z,99.99
2017-01-16T14:22:50.720Z,99.99
2017-01-16T14:24:02.132Z,99.99
2017-01-16T14:25:13.799Z,99.99
2017-01-16T14:26:25.193Z,99.99
2017-01-16T14:27:36.602Z,99.99
2017-01-16T14:28:48.004Z,99.99
2017-01-16T14:29:59.408Z,99.99
2017-01-16T14:31:10.867Z,99.99
2017-01-16T14:32:22.274Z,99.99
2017-01-16T14:33:33.876Z,99.99
2017-01-16T14:34:45.493Z,99.99
2017-01-16T14:35:56.895Z,99.99
2017-01-16T14:37:08.351Z,99.99
2017-01-16T14:38:19.944Z,99.99
2017-01-16T14:39:31.349Z,99.99
2017-01-16T14:40:42.754Z,99.99
2017-01-16T14:41:54.558Z,99.99
2017-01-16T14:43:06.014Z,99.99
2017-01-16T14:44:17.423Z,99.99
2017-01-16T14:45:29.028Z,99.99
2017-01-16T14:46:40.443Z,99.99
2017-01-16T14:47:51.846Z,99.99
2017-01-16T14:49:03.294Z,99.99
2017-01-16T14:50:14.696Z,99.99
2017-01-16T14:51:26.107Z,99.99
2017-01-16T14:52:37.506Z,99.99
2017-01-16T14:53:48.914Z,99.99
2017-01-16T14:55:00.367Z,99.99
2017-01-16T14:56:11.769Z,99.99
2017-01-16T14:57:23.172Z,99.99
2017-01-16T14:58:34.566Z,99.99
2017-01-16T14:59:45.965Z,99.99
2017-01-16T15:00:57.615Z,99.99
2017-01-16T15:02:09.017Z,99.99
2017-01-16T15:03:20.418Z,99.99
2017-01-16T15:04:31.813Z,99.99
2017-01-16T15:05:43.217Z,99.99
2017-01-16T15:06:54.684Z,99.99
2017-01-16T15:08:06.094Z,99.99
2017-01-16T15:09:17.499Z,99.99
2017-01-16T15:10:28.896Z,99.99
2017-01-16T15:11:40.302Z,99.99
2017-01-16T15:12:51.757Z,99.99
2017-01-16T15:14:03.362Z,99.99
2017-01-16T15:15:14.766Z,99.99
2017-01-16T15:16:26.166Z,99.99
2017-01-16T15:17:37.579Z,99.99
2017-01-16T15:18:49.028Z,99.99
2017-01-16T15:20:00.426Z,99.99
2017-01-16T15:21:11.827Z,99.99